Weeping Water, Nebraska
Current Conditions -  °F | °C
As of 12:55 AM on Sunday 26 Oct 2014 (Local Time) from KPMV Reporting Station
Clear Clear  
Wind Chill: 55°   Ceiling: Unl
Heat Index: 55°   Visibility: 10mi
Dew Point: 40°   Wind: 8mph
Humidity: 57%   Direction: 100°E
Pressure: 29.99"   Gusts: NA
Location:  40.87°N, 96.14°W
Report Text: KPMV 260555Z AUTO 10007KT 10SM CLR 13/05 A2999 RMK AO2 T01300047 10187 20128 402380086
Loading
Personal Weather Stations






























Interactive Weather Map
Tropical Storm Tracking
New forecast layout! Learn more

10-Day Weather Forecast

Advertisements
Track Severe Weather on mobile